createdAt,value
2022-11-17T00:00:19.295Z,9.46
2022-11-17T00:02:47.454Z,9.42
2022-11-17T00:05:14.929Z,9.50
2022-11-17T00:07:45.098Z,9.34
2022-11-17T00:10:13.219Z,9.41
2022-11-17T00:12:59.846Z,9.40
2022-11-17T00:15:26.993Z,9.46
2022-11-17T00:18:12.254Z,9.31
2022-11-17T00:20:58.968Z,9.43
2022-11-17T00:23:26.976Z,9.25
2022-11-17T00:25:53.789Z,9.17
2022-11-17T00:28:20.642Z,9.17
2022-11-17T00:31:06.188Z,9.30
2022-11-17T00:33:51.819Z,9.38
2022-11-17T00:36:18.846Z,9.35
2022-11-17T00:38:45.688Z,9.35
2022-11-17T00:41:12.561Z,9.35
2022-11-17T00:43:39.353Z,9.41
2022-11-17T00:46:06.315Z,9.20
2022-11-17T00:48:33.130Z,9.41
2022-11-17T00:51:04.010Z,9.20
2022-11-17T00:53:31.022Z,9.22
2022-11-17T00:55:58.098Z,8.97
2022-11-17T00:58:25.077Z,9.30
2022-11-17T01:00:51.944Z,9.22
2022-11-17T01:03:19.107Z,9.32
2022-11-17T01:05:45.903Z,9.18
2022-11-17T01:08:12.987Z,9.21
2022-11-17T01:10:39.980Z,9.31
2022-11-17T01:13:07.014Z,9.31
2022-11-17T01:15:34.256Z,9.17
2022-11-17T01:18:01.123Z,9.41
2022-11-17T01:20:28.333Z,9.25
2022-11-17T01:22:55.695Z,9.38
2022-11-17T01:25:22.539Z,9.46
2022-11-17T01:27:49.496Z,9.19
2022-11-17T01:30:18.267Z,9.33
2022-11-17T01:32:45.255Z,9.21
2022-11-17T01:35:12.171Z,9.23
2022-11-17T01:37:39.270Z,9.39
2022-11-17T01:40:07.145Z,9.47
2022-11-17T01:42:34.057Z,9.48
2022-11-17T01:45:03.121Z,9.46
2022-11-17T01:47:52.110Z,9.39
2022-11-17T01:50:21.700Z,9.43
2022-11-17T01:52:50.302Z,9.34
2022-11-17T01:55:21.197Z,9.26
2022-11-17T01:57:57.294Z,9.22
2022-11-17T02:00:25.280Z,9.34
2022-11-17T02:02:53.367Z,9.27
2022-11-17T02:05:45.833Z,9.43
2022-11-17T02:08:15.000Z,9.39
2022-11-17T02:10:48.581Z,9.41
2022-11-17T02:13:20.761Z,9.36
2022-11-17T02:16:13.115Z,9.27
2022-11-17T02:18:41.974Z,9.40
2022-11-17T02:21:44.940Z,9.37
2022-11-17T02:24:33.526Z,9.44
2022-11-17T02:27:32.859Z,9.37
2022-11-17T02:30:10.750Z,9.37
2022-11-17T02:32:56.093Z,9.40
2022-11-17T02:35:33.209Z,9.19
2022-11-17T02:38:11.521Z,9.43
2022-11-17T02:40:42.845Z,9.30
2022-11-17T02:43:33.982Z,9.38
2022-11-17T02:46:11.057Z,9.34
2022-11-17T02:48:44.922Z,9.18
2022-11-17T02:51:20.682Z,9.40
2022-11-17T02:53:49.447Z,9.44
2022-11-17T02:56:16.339Z,9.45
2022-11-17T02:58:43.344Z,9.40
2022-11-17T03:01:22.446Z,9.37
2022-11-17T03:04:26.349Z,9.57
2022-11-17T03:07:11.609Z,9.47
2022-11-17T03:09:56.868Z,9.52
2022-11-17T03:12:46.430Z,9.47
2022-11-17T03:15:31.553Z,9.37
2022-11-17T03:18:18.654Z,9.27
2022-11-17T03:21:35.781Z,9.07
2022-11-17T03:24:14.154Z,9.41
2022-11-17T03:26:47.978Z,9.46
2022-11-17T03:29:19.226Z,9.45
2022-11-17T03:31:49.166Z,9.37
2022-11-17T03:34:20.471Z,9.51
2022-11-17T03:36:52.624Z,9.47
2022-11-17T03:39:29.717Z,9.29
2022-11-17T03:42:13.872Z,9.24
2022-11-17T03:44:45.140Z,9.33
2022-11-17T03:47:15.067Z,9.39
2022-11-17T03:49:54.813Z,9.30
2022-11-17T03:52:21.995Z,9.33
2022-11-17T03:54:49.298Z,9.17
2022-11-17T03:57:38.443Z,9.38
2022-11-17T04:00:08.425Z,9.46
2022-11-17T04:02:46.125Z,9.50
2022-11-17T04:05:15.059Z,9.37
2022-11-17T04:07:47.074Z,9.45
2022-11-17T04:10:19.554Z,9.43
2022-11-17T04:13:06.588Z,9.50
2022-11-17T04:15:52.787Z,9.47
2022-11-17T04:18:20.438Z,9.50
2022-11-17T04:20:56.985Z,9.43
2022-11-17T04:23:25.240Z,9.43
2022-11-17T04:26:13.758Z,9.43
2022-11-17T04:28:47.140Z,9.35
2022-11-17T04:31:18.530Z,9.44
2022-11-17T04:33:47.693Z,9.47
2022-11-17T04:36:17.791Z,9.48
2022-11-17T04:38:50.859Z,9.37
2022-11-17T04:41:38.446Z,9.41
2022-11-17T04:44:06.676Z,9.46
2022-11-17T04:46:35.790Z,9.37
2022-11-17T04:49:04.384Z,9.38
2022-11-17T04:51:32.811Z,9.47
2022-11-17T04:54:00.115Z,9.48
2022-11-17T04:56:28.882Z,9.43
2022-11-17T04:58:56.629Z,9.42
2022-11-17T05:01:24.772Z,9.38
2022-11-17T05:03:51.734Z,9.40
2022-11-17T05:06:38.814Z,9.48
2022-11-17T05:09:08.415Z,9.46
2022-11-17T05:11:53.972Z,9.50
2022-11-17T05:14:22.815Z,9.39
2022-11-17T05:17:09.558Z,9.30
2022-11-17T05:19:44.470Z,9.45
2022-11-17T05:22:32.080Z,9.35
2022-11-17T05:24:59.513Z,9.26
2022-11-17T05:27:26.997Z,9.36
2022-11-17T05:29:54.210Z,9.34
2022-11-17T05:32:21.117Z,9.34
2022-11-17T05:34:48.184Z,9.18
2022-11-17T05:37:15.358Z,9.21
2022-11-17T05:39:42.204Z,9.27
2022-11-17T05:42:09.192Z,9.23
2022-11-17T05:44:37.160Z,9.19
2022-11-17T05:47:04.261Z,9.26
2022-11-17T05:49:31.090Z,9.19
2022-11-17T05:51:58.161Z,9.15
2022-11-17T05:54:26.898Z,9.15
2022-11-17T05:57:05.553Z,9.21
2022-11-17T05:59:56.762Z,9.34
2022-11-17T06:02:31.261Z,9.06
2022-11-17T06:04:58.339Z,9.22
2022-11-17T06:07:25.170Z,9.23
2022-11-17T06:09:52.656Z,9.09
2022-11-17T06:12:19.518Z,9.14
2022-11-17T06:14:46.346Z,9.32
2022-11-17T06:17:24.871Z,9.23
2022-11-17T06:19:58.447Z,9.12
2022-11-17T06:22:27.242Z,9.34
2022-11-17T06:24:55.007Z,9.14
2022-11-17T06:27:22.779Z,9.18
2022-11-17T06:29:49.952Z,9.35
2022-11-17T06:32:18.750Z,9.41
2022-11-17T06:34:54.862Z,9.46
2022-11-17T06:37:23.659Z,9.42
2022-11-17T06:39:50.519Z,9.16
2022-11-17T06:42:17.372Z,9.41
2022-11-17T06:44:44.335Z,9.54
2022-11-17T06:47:11.155Z,9.57
2022-11-17T06:49:38.302Z,9.46
2022-11-17T06:52:06.429Z,9.52
2022-11-17T06:54:33.332Z,9.56
2022-11-17T06:57:00.351Z,9.79
2022-11-17T06:59:27.240Z,9.86
2022-11-17T07:01:54.201Z,9.87
2022-11-17T07:04:21.085Z,9.78
2022-11-17T07:06:48.159Z,9.88
2022-11-17T07:09:15.204Z,9.89
2022-11-17T07:11:42.040Z,9.88
2022-11-17T07:14:08.846Z,9.96
2022-11-17T07:16:35.884Z,9.63
2022-11-17T07:19:03.823Z,9.97
2022-11-17T07:21:31.198Z,10.05
2022-11-17T07:23:58.467Z,10.07
2022-11-17T07:26:25.340Z,10.13
2022-11-17T07:28:52.302Z,10.23
2022-11-17T07:31:19.174Z,10.27
2022-11-17T07:33:46.121Z,10.30
2022-11-17T07:36:17.506Z,10.30
2022-11-17T07:38:44.485Z,10.25
2022-11-17T07:41:14.149Z,10.32
2022-11-17T07:43:41.236Z,10.26
2022-11-17T07:46:11.606Z,10.46
2022-11-17T07:48:39.253Z,10.31
2022-11-17T07:51:06.846Z,10.32
2022-11-17T07:53:35.399Z,10.70
2022-11-17T07:56:04.373Z,10.58
2022-11-17T07:58:31.571Z,10.85
2022-11-17T08:00:58.592Z,10.93
2022-11-17T08:03:25.771Z,11.09
2022-11-17T08:05:53.840Z,10.94
2022-11-17T08:08:20.991Z,11.30
2022-11-17T08:10:47.766Z,11.44
2022-11-17T08:13:15.919Z,11.44
2022-11-17T08:15:42.841Z,11.72
2022-11-17T08:18:10.004Z,11.97
2022-11-17T08:20:37.002Z,12.10
2022-11-17T08:23:04.073Z,12.11
2022-11-17T08:25:30.940Z,12.01
2022-11-17T08:27:58.558Z,12.17
2022-11-17T08:30:26.572Z,12.14
2022-11-17T08:32:54.492Z,12.16
2022-11-17T08:35:25.464Z,12.32
2022-11-17T08:37:53.397Z,12.31
2022-11-17T08:40:21.298Z,12.20
2022-11-17T08:42:59.183Z,12.17
2022-11-17T08:45:27.867Z,12.13
2022-11-17T08:47:56.419Z,12.16
2022-11-17T08:50:23.633Z,12.07
2022-11-17T08:52:52.366Z,12.17
2022-11-17T08:55:19.614Z,12.23
2022-11-17T08:57:46.606Z,12.24
2022-11-17T09:00:14.371Z,12.17
2022-11-17T09:02:41.448Z,12.30
2022-11-17T09:05:08.877Z,12.42
2022-11-17T09:07:36.012Z,12.39
2022-11-17T09:10:05.420Z,12.53
2022-11-17T09:12:32.580Z,12.65
2022-11-17T09:14:59.540Z,12.90
2022-11-17T09:17:26.456Z,13.06
2022-11-17T09:19:53.733Z,13.15
2022-11-17T09:22:21.237Z,13.30
2022-11-17T09:24:48.290Z,13.31
2022-11-17T09:27:15.382Z,13.39
2022-11-17T09:29:42.233Z,13.36
2022-11-17T09:32:09.032Z,13.30
2022-11-17T09:34:36.167Z,13.11
2022-11-17T09:37:03.147Z,13.13
2022-11-17T09:39:30.031Z,13.29
2022-11-17T09:41:57.536Z,13.41
2022-11-17T09:44:24.569Z,13.44
2022-11-17T09:46:57.670Z,13.45
2022-11-17T09:49:46.272Z,13.36
2022-11-17T09:52:19.372Z,13.28
2022-11-17T09:54:55.600Z,13.15
2022-11-17T09:57:31.147Z,13.09
2022-11-17T10:00:22.560Z,13.14
2022-11-17T10:02:51.564Z,13.12
2022-11-17T10:05:26.413Z,13.00
2022-11-17T10:07:56.361Z,13.02
2022-11-17T10:10:35.347Z,13.10
2022-11-17T10:13:06.015Z,13.09
2022-11-17T10:15:47.500Z,13.11
2022-11-17T10:18:16.133Z,13.20
2022-11-17T10:20:45.028Z,13.24
2022-11-17T10:23:19.975Z,13.28
2022-11-17T10:25:49.592Z,13.31
2022-11-17T10:28:31.858Z,13.44
2022-11-17T10:31:03.402Z,13.52
2022-11-17T10:33:41.184Z,13.50
2022-11-17T10:36:19.264Z,13.36
2022-11-17T10:38:51.724Z,13.44
2022-11-17T10:41:23.065Z,13.62
2022-11-17T10:43:59.885Z,13.76
2022-11-17T10:46:31.435Z,13.79
2022-11-17T10:49:05.275Z,13.84
2022-11-17T10:51:32.919Z,14.03
2022-11-17T10:54:14.939Z,14.13
2022-11-17T10:56:51.575Z,14.16
2022-11-17T10:59:29.920Z,14.07
2022-11-17T11:01:57.140Z,14.16
2022-11-17T11:04:34.771Z,14.37
2022-11-17T11:07:08.116Z,14.47
2022-11-17T11:09:41.507Z,14.40
2022-11-17T11:12:16.531Z,14.39
2022-11-17T11:14:52.700Z,14.43
2022-11-17T11:17:20.442Z,14.49
2022-11-17T11:19:54.116Z,14.55
2022-11-17T11:22:42.585Z,14.72
2022-11-17T11:25:09.706Z,14.81
2022-11-17T11:27:56.209Z,14.93
2022-11-17T11:30:23.857Z,15.19
2022-11-17T11:33:12.595Z,14.90
2022-11-17T11:35:55.024Z,15.38
2022-11-17T11:38:44.929Z,15.43
2022-11-17T11:41:26.818Z,15.50
2022-11-17T11:44:06.479Z,15.47
2022-11-17T11:46:45.463Z,15.52
2022-11-17T11:49:40.551Z,15.39
2022-11-17T11:52:16.302Z,15.40
2022-11-17T11:54:53.485Z,15.51
2022-11-17T11:57:27.123Z,15.51
2022-11-17T12:00:04.690Z,15.46
2022-11-17T12:03:01.179Z,15.52
2022-11-17T12:05:50.039Z,15.55
2022-11-17T12:08:32.235Z,15.54
2022-11-17T12:11:29.950Z,15.53
2022-11-17T12:13:57.870Z,15.62
2022-11-17T12:16:35.264Z,15.64
2022-11-17T12:19:03.124Z,15.69
2022-11-17T12:21:32.504Z,15.53
2022-11-17T12:24:16.806Z,15.60
2022-11-17T12:26:45.310Z,15.54
2022-11-17T12:29:44.980Z,15.58
2022-11-17T12:32:43.891Z,15.47
2022-11-17T12:35:27.726Z,15.36
2022-11-17T12:38:20.124Z,15.56
2022-11-17T12:40:51.660Z,15.51
2022-11-17T12:43:19.652Z,15.68
2022-11-17T12:45:52.825Z,15.70
2022-11-17T12:48:33.327Z,15.93
2022-11-17T12:51:06.533Z,16.06
2022-11-17T12:53:48.555Z,16.08
2022-11-17T12:56:33.342Z,16.19
2022-11-17T12:59:12.450Z,16.26
2022-11-17T13:02:17.808Z,16.15
2022-11-17T13:05:01.953Z,16.16
2022-11-17T13:07:30.103Z,16.34
2022-11-17T13:09:59.197Z,16.28
2022-11-17T13:12:28.520Z,16.22
2022-11-17T13:14:56.463Z,16.22
2022-11-17T13:17:29.815Z,16.28
2022-11-17T13:20:20.069Z,16.29
2022-11-17T13:23:04.921Z,16.28
2022-11-17T13:25:32.360Z,16.26
2022-11-17T13:28:04.482Z,16.24
2022-11-17T13:30:33.212Z,16.39
2022-11-17T13:33:03.730Z,16.35
2022-11-17T13:35:33.253Z,16.20
2022-11-17T13:38:21.669Z,16.13
2022-11-17T13:40:53.562Z,16.09
2022-11-17T13:43:23.081Z,15.87
2022-11-17T13:45:53.568Z,15.88
2022-11-17T13:48:41.381Z,15.77
2022-11-17T13:51:28.381Z,15.78
2022-11-17T13:54:14.201Z,15.63
2022-11-17T13:56:46.100Z,15.41
2022-11-17T13:59:26.288Z,15.46
2022-11-17T14:02:15.217Z,15.35
2022-11-17T14:05:08.600Z,15.40
2022-11-17T14:07:38.604Z,15.36
2022-11-17T14:10:28.142Z,15.34
2022-11-17T14:13:01.148Z,15.36
2022-11-17T14:15:37.569Z,15.22
2022-11-17T14:18:28.795Z,15.24
2022-11-17T14:21:09.792Z,15.12
2022-11-17T14:23:37.217Z,15.12
2022-11-17T14:26:04.451Z,15.11
2022-11-17T14:28:31.476Z,15.15
2022-11-17T14:30:58.533Z,15.10
2022-11-17T14:33:26.194Z,15.09
2022-11-17T14:35:56.159Z,15.01
2022-11-17T14:38:23.347Z,15.01
2022-11-17T14:40:52.085Z,14.99
2022-11-17T14:43:20.906Z,14.75
2022-11-17T14:45:48.846Z,14.71
2022-11-17T14:48:19.290Z,14.75
2022-11-17T14:50:47.397Z,14.73
2022-11-17T14:53:14.596Z,14.50
2022-11-17T14:55:41.577Z,14.63
2022-11-17T14:58:10.028Z,14.60
2022-11-17T15:00:37.897Z,14.35
2022-11-17T15:03:04.859Z,14.38
2022-11-17T15:05:32.268Z,14.29
2022-11-17T15:07:59.199Z,14.28
2022-11-17T15:10:26.081Z,14.22
2022-11-17T15:12:52.944Z,14.09
2022-11-17T15:15:20.021Z,13.98
2022-11-17T15:17:46.929Z,13.86
2022-11-17T15:20:14.140Z,13.71
2022-11-17T15:22:41.042Z,13.76
2022-11-17T15:25:08.628Z,13.65
2022-11-17T15:27:35.834Z,13.64
2022-11-17T15:30:02.863Z,13.45
2022-11-17T15:32:30.031Z,13.54
2022-11-17T15:34:57.116Z,13.49
2022-11-17T15:37:24.989Z,13.22
2022-11-17T15:39:51.862Z,13.40
2022-11-17T15:42:18.985Z,13.41
2022-11-17T15:44:45.923Z,13.28
2022-11-17T15:47:12.927Z,13.23
2022-11-17T15:49:39.812Z,13.15
2022-11-17T15:52:06.760Z,13.07
2022-11-17T15:54:33.920Z,13.03
2022-11-17T15:57:02.786Z,12.75
2022-11-17T15:59:29.946Z,12.84
2022-11-17T16:01:56.792Z,12.79
2022-11-17T16:04:23.720Z,12.85
2022-11-17T16:06:50.781Z,12.81
2022-11-17T16:09:18.311Z,12.80
2022-11-17T16:11:45.439Z,12.81
2022-11-17T16:14:14.933Z,12.80
2022-11-17T16:16:42.193Z,12.75
2022-11-17T16:19:09.240Z,12.62
2022-11-17T16:21:36.158Z,12.49
2022-11-17T16:24:03.484Z,12.54
2022-11-17T16:26:30.569Z,12.42
2022-11-17T16:29:04.146Z,11.50
2022-11-17T16:31:33.937Z,12.31
2022-11-17T16:34:04.494Z,12.39
2022-11-17T16:36:36.893Z,12.33
2022-11-17T16:39:06.953Z,12.24
2022-11-17T16:41:37.080Z,12.26
2022-11-17T16:44:09.572Z,12.22
2022-11-17T16:46:36.732Z,12.17
2022-11-17T16:49:07.651Z,12.08
2022-11-17T16:51:35.239Z,11.96
2022-11-17T16:54:05.129Z,12.04
2022-11-17T16:56:33.615Z,12.00
2022-11-17T16:59:01.280Z,11.99
2022-11-17T17:01:36.269Z,11.98
2022-11-17T17:04:08.208Z,11.98
2022-11-17T17:06:37.346Z,11.91
2022-11-17T17:09:06.853Z,11.82
2022-11-17T17:11:35.742Z,11.85
2022-11-17T17:14:06.318Z,11.78
2022-11-17T17:16:35.860Z,11.66
2022-11-17T17:19:04.919Z,11.70
2022-11-17T17:21:33.201Z,11.70
2022-11-17T17:24:00.355Z,11.71
2022-11-17T17:26:29.521Z,11.75
2022-11-17T17:28:59.283Z,11.69
2022-11-17T17:31:30.717Z,11.58
2022-11-17T17:34:00.032Z,11.59
2022-11-17T17:36:27.404Z,11.52
2022-11-17T17:38:56.556Z,11.36
2022-11-17T17:41:29.284Z,11.48
2022-11-17T17:44:01.364Z,11.46
2022-11-17T17:46:29.956Z,11.42
2022-11-17T17:48:57.169Z,11.44
2022-11-17T17:51:26.035Z,11.34
2022-11-17T17:53:55.912Z,11.33
2022-11-17T17:56:23.640Z,11.25
2022-11-17T17:58:51.833Z,11.39
2022-11-17T18:01:30.788Z,11.32
2022-11-17T18:04:04.684Z,11.12
2022-11-17T18:06:37.499Z,11.20
2022-11-17T18:09:06.163Z,11.21
2022-11-17T18:11:50.646Z,11.14
2022-11-17T18:14:24.672Z,11.17
2022-11-17T18:16:52.656Z,11.03
2022-11-17T18:19:19.862Z,11.07
2022-11-17T18:21:46.863Z,11.08
2022-11-17T18:24:14.003Z,11.00
2022-11-17T18:26:41.305Z,10.95
2022-11-17T18:29:11.995Z,11.02
2022-11-17T18:31:39.301Z,11.00
2022-11-17T18:34:15.737Z,10.86
2022-11-17T18:36:42.987Z,10.84
2022-11-17T18:39:10.133Z,10.93
2022-11-17T18:41:37.404Z,10.88
2022-11-17T18:44:05.025Z,10.88
2022-11-17T18:46:32.896Z,10.93
2022-11-17T18:49:00.656Z,10.80
2022-11-17T18:51:30.698Z,10.82
2022-11-17T18:54:00.376Z,10.80
2022-11-17T18:56:31.194Z,10.78
2022-11-17T18:58:59.525Z,10.82
2022-11-17T19:01:29.144Z,10.81
2022-11-17T19:04:02.657Z,10.69
2022-11-17T19:06:30.661Z,10.69
2022-11-17T19:08:59.635Z,10.21
2022-11-17T19:11:28.852Z,10.64
2022-11-17T19:13:55.711Z,10.40
2022-11-17T19:16:25.431Z,10.70
2022-11-17T19:18:54.699Z,10.71
2022-11-17T19:21:30.136Z,10.56
2022-11-17T19:23:59.490Z,10.71
2022-11-17T19:26:29.192Z,10.67
2022-11-17T19:28:58.099Z,10.61
2022-11-17T19:31:25.780Z,10.57
2022-11-17T19:33:53.934Z,10.61
2022-11-17T19:36:22.847Z,10.51
2022-11-17T19:38:54.718Z,10.51
2022-11-17T19:41:36.581Z,10.56
2022-11-17T19:44:09.031Z,10.51
2022-11-17T19:46:36.439Z,10.47
2022-11-17T19:49:06.149Z,10.48
2022-11-17T19:51:36.668Z,10.48
2022-11-17T19:54:06.754Z,10.50
2022-11-17T19:56:33.939Z,10.52
2022-11-17T19:59:00.810Z,10.51
2022-11-17T20:01:29.396Z,10.57
2022-11-17T20:03:58.099Z,10.55
2022-11-17T20:06:27.812Z,10.46
2022-11-17T20:08:56.045Z,10.46
2022-11-17T20:11:25.208Z,10.40
2022-11-17T20:13:53.118Z,10.35
2022-11-17T20:16:24.678Z,10.44
2022-11-17T20:18:54.543Z,10.46
2022-11-17T20:21:22.044Z,10.45
2022-11-17T20:23:49.220Z,10.44
2022-11-17T20:26:19.373Z,10.48
2022-11-17T20:28:47.838Z,10.46
2022-11-17T20:31:24.449Z,10.37
2022-11-17T20:33:53.936Z,10.42
2022-11-17T20:36:23.606Z,10.37
2022-11-17T20:38:52.075Z,10.26
2022-11-17T20:41:21.043Z,10.25
2022-11-17T20:43:49.681Z,10.26
2022-11-17T20:46:17.473Z,10.25
2022-11-17T20:48:44.752Z,10.11
2022-11-17T20:51:14.680Z,10.19
2022-11-17T20:53:41.797Z,10.23
2022-11-17T20:56:11.048Z,10.19
2022-11-17T20:58:38.412Z,10.14
2022-11-17T21:01:11.438Z,10.12
2022-11-17T21:03:38.821Z,10.02
2022-11-17T21:06:06.394Z,10.03
2022-11-17T21:08:35.342Z,9.98
2022-11-17T21:11:04.886Z,9.96
2022-11-17T21:13:33.850Z,9.89
2022-11-17T21:16:06.856Z,9.88
2022-11-17T21:18:35.320Z,9.81
2022-11-17T21:21:04.521Z,9.79
2022-11-17T21:23:32.276Z,9.72
2022-11-17T21:26:03.776Z,9.75
2022-11-17T21:28:30.871Z,9.71
2022-11-17T21:31:13.726Z,9.65
2022-11-17T21:33:41.047Z,9.68
2022-11-17T21:36:14.195Z,9.68
2022-11-17T21:38:42.151Z,9.68
2022-11-17T21:41:57.134Z,9.69
2022-11-17T21:44:12.198Z,9.55
2022-11-17T21:46:39.036Z,9.54
2022-11-17T21:49:06.043Z,9.53
2022-11-17T21:51:37.857Z,9.46
2022-11-17T21:54:17.391Z,9.36
2022-11-17T21:56:46.232Z,9.28
2022-11-17T21:59:14.019Z,9.33
2022-11-17T22:01:41.492Z,9.35
2022-11-17T22:04:10.650Z,9.29
2022-11-17T22:06:38.291Z,9.29
2022-11-17T22:09:05.200Z,9.27
2022-11-17T22:11:35.987Z,9.25
2022-11-17T22:14:29.973Z,9.31
2022-11-17T22:16:57.238Z,9.22
2022-11-17T22:19:27.013Z,9.12
2022-11-17T22:21:54.806Z,9.19
2022-11-17T22:24:21.965Z,9.17
2022-11-17T22:26:49.185Z,9.10
2022-11-17T22:29:19.106Z,9.04
2022-11-17T22:31:48.594Z,9.07
2022-11-17T22:34:15.907Z,8.94
2022-11-17T22:36:43.153Z,8.52
2022-11-17T22:39:10.470Z,8.79
2022-11-17T22:41:37.525Z,8.76
2022-11-17T22:44:04.737Z,8.81
2022-11-17T22:46:31.628Z,8.66
2022-11-17T22:48:58.706Z,8.72
2022-11-17T22:51:44.044Z,8.74
2022-11-17T22:54:11.514Z,8.77
2022-11-17T22:56:39.224Z,8.77
2022-11-17T22:59:06.715Z,8.73
2022-11-17T23:01:33.801Z,8.52
2022-11-17T23:04:03.968Z,8.74
2022-11-17T23:06:30.998Z,8.67
2022-11-17T23:08:58.352Z,8.63
2022-11-17T23:11:42.113Z,8.60
2022-11-17T23:14:11.789Z,8.65
2022-11-17T23:16:38.780Z,8.65
2022-11-17T23:19:06.018Z,8.62
2022-11-17T23:21:32.886Z,8.55
2022-11-17T23:23:59.991Z,8.65
2022-11-17T23:26:26.947Z,8.47
2022-11-17T23:28:54.014Z,8.61
2022-11-17T23:31:21.062Z,8.64
2022-11-17T23:33:48.578Z,8.41
2022-11-17T23:36:19.127Z,8.43
2022-11-17T23:38:47.145Z,8.48
2022-11-17T23:41:16.119Z,8.50
2022-11-17T23:43:43.318Z,8.49
2022-11-17T23:46:15.242Z,8.40
2022-11-17T23:48:43.300Z,8.40
2022-11-17T23:51:12.870Z,8.41
2022-11-17T23:53:40.760Z,8.42
2022-11-17T23:56:08.851Z,8.31
2022-11-17T23:58:36.573Z,8.29
